Time;durP1;ratioP1;P1;durP2;ratioP2;P2;SDS_P1;SDS_P2;PMS_P1;PMS_P2;Temp;Humidity;BMP_temperature;BMP_pressure;BME280_temperature;BME280_humidity;BME280_pressure;Samples;Min_cycle;Max_cycle;Signal;HPM_P1;HPM_P2
2022/10/12 00:00:24;;;;;;;4.90;2.60;;;9.10;62.10;;;;;;5063247;28;20478;-82
2022/10/12 00:02:50;;;;;;;4.15;2.50;;;9.10;62.10;;;;;;5054009;28;20054;-82
2022/10/12 00:05:15;;;;;;;4.63;2.70;;;9.00;62.00;;;;;;5076560;28;20212;-82
2022/10/12 00:07:41;;;;;;;3.70;2.40;;;8.90;62.10;;;;;;5044677;28;20657;-82
2022/10/12 00:10:07;;;;;;;4.40;2.60;;;8.90;62.10;;;;;;5058364;28;20135;-82
2022/10/12 00:12:33;;;;;;;4.47;2.60;;;8.90;62.40;;;;;;5047627;28;20121;-82
2022/10/12 00:14:58;;;;;;;4.28;2.55;;;8.90;62.30;;;;;;5057247;28;20020;-82
2022/10/12 00:17:24;;;;;;;4.80;3.27;;;8.90;62.40;;;;;;5062759;28;20071;-82
2022/10/12 00:19:50;;;;;;;3.97;2.40;;;8.90;62.60;;;;;;5063869;28;20108;-81
2022/10/12 00:22:15;;;;;;;4.50;2.50;;;8.80;62.50;;;;;;5044418;28;20021;-82
2022/10/12 00:24:41;;;;;;;4.33;2.50;;;8.80;62.60;;;;;;5060882;28;20677;-82
2022/10/12 00:27:06;;;;;;;4.60;2.53;;;8.70;62.60;;;;;;5073411;28;20094;-82
2022/10/12 00:29:32;;;;;;;4.57;2.47;;;8.70;62.60;;;;;;5056142;28;20245;-82
2022/10/12 00:31:58;;;;;;;4.25;2.40;;;8.70;62.60;;;;;;5055428;28;20058;-82
2022/10/12 00:34:23;;;;;;;3.50;2.30;;;8.60;62.70;;;;;;5059876;28;20040;-81
2022/10/12 00:36:49;;;;;;;4.27;2.47;;;8.60;62.80;;;;;;5063213;28;20033;-81
2022/10/12 00:39:15;;;;;;;4.25;2.63;;;8.60;62.80;;;;;;5052467;28;20024;-81
2022/10/12 00:41:43;;;;;;;3.57;2.30;;;8.50;62.80;;;;;;5061067;28;20054;-82
2022/10/12 00:44:47;;;;;;;3.63;2.22;;;8.50;63.00;;;;;;5058091;28;20052;-82
2022/10/12 00:47:33;;;;;;;4.10;2.53;;;8.40;63.90;;;;;;5057481;28;20025;-82
2022/10/12 00:50:12;;;;;;;4.85;2.28;;;8.40;64.00;;;;;;5061681;28;20048;-81
2022/10/12 00:52:54;;;;;;;3.30;2.20;;;8.40;63.50;;;;;;5049519;28;20036;-81
2022/10/12 00:55:23;;;;;;;3.05;2.20;;;8.40;63.10;;;;;;5050283;28;20028;-81
2022/10/12 00:57:51;;;;;;;4.68;2.55;;;8.40;63.10;;;;;;5066491;28;20056;-81
2022/10/12 01:00:21;;;;;;;3.90;2.50;;;8.30;63.10;;;;;;5037604;28;20039;-81
2022/10/12 01:02:49;;;;;;;3.72;2.15;;;8.30;63.50;;;;;;5062927;28;20062;-80
2022/10/12 01:05:15;;;;;;;3.90;2.50;;;8.30;63.20;;;;;;5034257;28;20115;-79
2022/10/12 01:07:41;;;;;;;4.28;2.55;;;8.30;63.30;;;;;;5050752;28;21266;-80
2022/10/12 01:10:07;;;;;;;4.63;2.60;;;8.20;63.20;;;;;;5043489;28;20458;-80
2022/10/12 01:12:34;;;;;;;3.33;2.00;;;8.20;63.30;;;;;;5031231;28;20063;-80
2022/10/12 01:15:00;;;;;;;3.78;2.58;;;8.10;63.30;;;;;;5068695;28;20036;-80
2022/10/12 01:18:08;;;;;;;4.30;2.45;;;8.10;63.50;;;;;;5049680;28;20016;-79
2022/10/12 01:20:55;;;;;;;3.08;1.95;;;8.10;64.00;;;;;;4986327;28;20037;-80
2022/10/12 01:23:48;;;;;;;4.03;2.40;;;8.10;63.60;;;;;;5050653;28;20055;-79
2022/10/12 01:26:26;;;;;;;4.80;2.60;;;8.00;64.00;;;;;;5064911;28;20451;-79
2022/10/12 01:29:05;;;;;;;3.67;2.30;;;8.00;64.20;;;;;;5063154;28;20020;-79
2022/10/12 01:31:44;;;;;;;3.70;2.30;;;8.00;64.00;;;;;;5030618;28;20433;-80
2022/10/12 01:34:45;;;;;;;3.45;2.10;;;8.00;63.60;;;;;;5058474;28;20086;-80
2022/10/12 01:37:22;;;;;;;3.75;2.40;;;7.90;63.80;;;;;;5021587;28;20044;-79
2022/10/12 01:39:58;;;;;;;3.27;2.37;;;7.90;64.20;;;;;;5045950;28;20793;-79
2022/10/12 01:42:27;;;;;;;3.97;2.45;;;7.90;64.20;;;;;;5053535;28;20540;-79
2022/10/12 01:45:04;;;;;;;3.95;2.22;;;7.90;63.90;;;;;;5043279;28;20016;-79
2022/10/12 01:47:31;;;;;;;6.13;2.72;;;7.80;64.30;;;;;;5057255;28;20408;-79
2022/10/12 01:49:57;;;;;;;3.70;2.40;;;7.80;63.70;;;;;;5074959;28;20046;-79
2022/10/12 01:52:37;;;;;;;3.30;2.40;;;7.80;63.80;;;;;;5036254;28;20028;-79
2022/10/12 01:55:06;;;;;;;4.00;2.60;;;7.70;64.10;;;;;;5043514;28;20027;-79
2022/10/12 01:57:38;;;;;;;4.18;2.67;;;7.70;64.00;;;;;;5063376;28;20595;-79
2022/10/12 02:00:08;;;;;;;3.95;2.40;;;7.70;64.40;;;;;;5062648;28;20036;-79
2022/10/12 02:03:00;;;;;;;3.80;2.55;;;7.70;64.20;;;;;;5050133;28;22637;-80
2022/10/12 02:05:49;;;;;;;4.00;2.37;;;7.60;65.00;;;;;;5054328;28;20071;-79
2022/10/12 02:08:27;;;;;;;3.70;2.42;;;7.60;64.40;;;;;;5062464;28;20033;-80
2022/10/12 02:10:59;;;;;;;4.78;2.40;;;7.60;64.20;;;;;;5047169;28;20029;-79
2022/10/12 02:13:29;;;;;;;3.80;2.47;;;7.60;64.40;;;;;;5056489;28;20031;-79
2022/10/12 02:15:58;;;;;;;3.45;2.25;;;7.50;64.30;;;;;;5059986;28;20488;-79
2022/10/12 02:18:24;;;;;;;3.53;2.40;;;7.50;64.50;;;;;;5051299;28;20120;-79
2022/10/12 02:20:52;;;;;;;4.05;2.30;;;7.50;64.40;;;;;;5062863;28;20017;-79
2022/10/12 02:23:21;;;;;;;4.88;2.40;;;7.40;64.50;;;;;;5054783;28;20131;-79
2022/10/12 02:25:49;;;;;;;4.80;2.53;;;7.40;64.70;;;;;;5062075;28;20025;-79
2022/10/12 02:28:16;;;;;;;3.28;2.30;;;7.40;64.70;;;;;;5059048;28;20028;-79
2022/10/12 02:31:17;;;;;;;3.73;2.37;;;7.40;64.70;;;;;;5061468;28;20113;-79
2022/10/12 02:34:03;;;;;;;5.72;2.92;;;7.40;65.70;;;;;;5042291;28;20103;-79
2022/10/12 02:36:38;;;;;;;3.78;2.47;;;7.40;65.40;;;;;;5058503;28;20046;-79
2022/10/12 02:39:12;;;;;;;4.63;2.42;;;7.40;65.30;;;;;;5063925;28;20028;-79
2022/10/12 02:41:43;;;;;;;4.03;2.40;;;7.30;65.10;;;;;;5041524;28;20113;-79
2022/10/12 02:44:12;;;;;;;3.93;2.47;;;7.30;65.10;;;;;;5062157;28;20492;-79
2022/10/12 02:46:40;;;;;;;4.43;2.60;;;7.30;65.20;;;;;;5066989;28;20291;-79
2022/10/12 02:49:06;;;;;;;3.50;2.28;;;7.30;65.10;;;;;;5051834;28;20047;-79
2022/10/12 02:51:33;;;;;;;3.95;2.45;;;7.30;65.10;;;;;;5054627;28;20176;-79
2022/10/12 02:54:00;;;;;;;3.70;2.28;;;7.20;65.00;;;;;;5055805;28;20132;-79
2022/10/12 02:56:25;;;;;;;4.17;2.30;;;7.20;65.90;;;;;;5047579;28;20039;-79
2022/10/12 02:58:51;;;;;;;3.75;2.70;;;7.20;65.20;;;;;;5060198;28;20025;-79
2022/10/12 03:01:17;;;;;;;4.33;2.30;;;7.20;65.30;;;;;;5059897;28;20048;-79
2022/10/12 03:03:43;;;;;;;3.95;2.42;;;7.20;65.30;;;;;;5045788;28;20051;-79
2022/10/12 03:06:09;;;;;;;3.35;2.50;;;7.20;65.30;;;;;;5027624;28;20115;-79
2022/10/12 03:08:35;;;;;;;3.17;2.10;;;7.20;65.40;;;;;;5069185;28;20285;-79
2022/10/12 03:11:02;;;;;;;4.30;2.60;;;7.10;65.10;;;;;;5039736;28;20532;-79
2022/10/12 03:13:28;;;;;;;3.83;2.50;;;7.10;65.30;;;;;;5051630;28;20393;-79
2022/10/12 03:15:59;;;;;;;3.78;2.50;;;7.10;65.90;;;;;;5045146;28;20027;-79
2022/10/12 03:18:24;;;;;;;4.33;2.77;;;7.00;65.30;;;;;;5059220;28;20024;-79
2022/10/12 03:20:50;;;;;;;3.67;2.47;;;7.10;65.50;;;;;;5038963;28;20459;-79
2022/10/12 03:23:16;;;;;;;4.30;2.50;;;7.00;65.50;;;;;;5040338;28;20024;-79
2022/10/12 03:25:41;;;;;;;4.55;2.42;;;7.00;65.40;;;;;;5046260;28;20025;-79
2022/10/12 03:28:07;;;;;;;4.03;2.43;;;6.90;65.30;;;;;;5025370;28;20029;-79
2022/10/12 03:30:32;;;;;;;4.50;2.80;;;7.00;65.50;;;;;;5066644;28;20020;-79
2022/10/12 03:32:59;;;;;;;3.22;2.30;;;6.90;65.80;;;;;;5050888;28;20241;-79
2022/10/12 03:35:25;;;;;;;3.60;2.60;;;6.90;65.80;;;;;;5068400;28;20030;-79
2022/10/12 03:37:50;;;;;;;4.60;2.40;;;6.90;65.80;;;;;;5041492;28;20028;-79
2022/10/12 03:40:16;;;;;;;4.63;2.80;;;6.90;66.00;;;;;;5065779;28;20205;-79
2022/10/12 03:42:41;;;;;;;3.67;2.30;;;6.90;66.10;;;;;;5043647;28;20119;-79
2022/10/12 03:45:08;;;;;;;4.53;2.53;;;6.90;66.10;;;;;;5038131;28;20558;-80
2022/10/12 03:47:33;;;;;;;4.32;2.50;;;6.90;66.20;;;;;;5047068;28;20016;-79
2022/10/12 03:49:59;;;;;;;5.70;2.50;;;7.00;66.30;;;;;;5063571;28;20149;-79
2022/10/12 03:52:25;;;;;;;3.75;2.38;;;6.90;66.30;;;;;;5063047;28;20040;-79
2022/10/12 03:54:50;;;;;;;4.05;2.40;;;7.00;66.40;;;;;;5035381;28;20082;-79
2022/10/12 03:57:16;;;;;;;3.73;2.67;;;7.00;66.30;;;;;;5045127;28;20546;-79
2022/10/12 03:59:42;;;;;;;3.90;2.80;;;7.00;66.40;;;;;;5029017;28;20024;-79
2022/10/12 04:02:07;;;;;;;3.83;2.38;;;7.00;66.60;;;;;;5057373;28;20071;-79
2022/10/12 04:04:33;;;;;;;5.33;2.80;;;7.00;66.40;;;;;;5058739;28;20021;-79
2022/10/12 04:06:59;;;;;;;3.92;2.20;;;7.10;66.50;;;;;;5057352;28;20017;-79
2022/10/12 04:09:24;;;;;;;4.20;2.50;;;7.10;66.40;;;;;;5049930;28;20024;-79
2022/10/12 04:11:50;;;;;;;3.83;2.27;;;7.00;66.40;;;;;;5067286;28;20021;-79
2022/10/12 04:14:15;;;;;;;4.50;2.90;;;7.10;66.40;;;;;;5036460;28;20103;-79
2022/10/12 04:16:41;;;;;;;4.67;2.87;;;7.10;66.40;;;;;;5045454;28;20036;-79
2022/10/12 04:19:11;;;;;;;6.57;2.88;;;7.10;66.50;;;;;;5053508;28;20118;-79
2022/10/12 04:21:36;;;;;;;4.40;2.70;;;7.10;66.60;;;;;;5042482;28;20397;-79
2022/10/12 04:24:02;;;;;;;4.80;3.10;;;7.10;66.70;;;;;;5054146;28;20467;-79
2022/10/12 04:26:28;;;;;;;4.45;2.65;;;7.10;66.40;;;;;;5080329;28;21782;-79
2022/10/12 04:28:53;;;;;;;4.30;2.60;;;7.00;66.40;;;;;;5052563;28;20025;-79
2022/10/12 04:31:19;;;;;;;4.13;2.77;;;7.00;66.30;;;;;;5045632;28;20024;-79
2022/10/12 04:33:45;;;;;;;5.00;2.88;;;7.00;66.40;;;;;;5039044;28;20115;-79
2022/10/12 04:36:10;;;;;;;4.97;3.20;;;7.00;66.40;;;;;;5046620;28;20031;-79
2022/10/12 04:38:36;;;;;;;5.70;2.70;;;7.00;66.40;;;;;;5072422;28;20038;-79
2022/10/12 04:41:02;;;;;;;4.77;3.00;;;6.90;66.40;;;;;;5031277;28;20396;-79
2022/10/12 04:43:28;;;;;;;5.43;3.20;;;6.90;66.60;;;;;;5058065;28;20504;-79
2022/10/12 04:45:58;;;;;;;5.17;2.77;;;6.90;66.60;;;;;;5032715;28;20017;-79
2022/10/12 04:48:25;;;;;;;6.53;2.90;;;6.80;66.60;;;;;;5054911;28;20793;-79
2022/10/12 04:50:51;;;;;;;4.78;3.08;;;6.80;66.70;;;;;;5052922;28;20032;-80
2022/10/12 04:53:17;;;;;;;4.45;2.80;;;6.80;66.80;;;;;;5060421;28;20040;-79
2022/10/12 04:55:43;;;;;;;4.65;2.70;;;6.80;66.90;;;;;;5028981;28;20028;-79
2022/10/12 04:58:08;;;;;;;3.57;2.40;;;6.80;66.90;;;;;;5045061;28;20137;-79
2022/10/12 05:00:34;;;;;;;4.53;3.10;;;6.80;66.90;;;;;;5054301;28;20033;-79
2022/10/12 05:03:00;;;;;;;6.40;3.10;;;6.80;67.10;;;;;;5035714;28;20496;-79
2022/10/12 05:05:25;;;;;;;4.63;3.10;;;6.70;67.00;;;;;;5064552;28;20028;-79
2022/10/12 05:07:51;;;;;;;5.00;3.03;;;6.70;67.00;;;;;;5044415;28;20411;-79
2022/10/12 05:10:17;;;;;;;5.93;3.33;;;6.70;67.10;;;;;;5051013;28;20347;-79
2022/10/12 05:12:43;;;;;;;5.00;2.83;;;6.70;67.10;;;;;;5038891;28;20028;-80
2022/10/12 05:15:09;;;;;;;5.53;3.30;;;6.70;67.10;;;;;;5059322;28;20028;-79
2022/10/12 05:17:35;;;;;;;4.20;2.75;;;6.70;67.30;;;;;;5052955;28;20048;-79
2022/10/12 05:20:01;;;;;;;5.37;2.90;;;6.70;67.10;;;;;;5054324;28;20384;-79
2022/10/12 05:22:26;;;;;;;5.35;3.08;;;6.70;67.20;;;;;;5027290;28;20213;-79
2022/10/12 05:24:52;;;;;;;4.23;2.63;;;6.70;67.20;;;;;;5057893;28;20466;-79
2022/10/12 05:27:18;;;;;;;4.80;3.40;;;6.70;67.20;;;;;;5050238;28;20690;-79
2022/10/12 05:29:43;;;;;;;5.85;3.42;;;6.70;67.40;;;;;;5058428;28;20562;-79
2022/10/12 05:32:09;;;;;;;5.27;3.10;;;6.70;67.40;;;;;;5036047;28;20044;-79
2022/10/12 05:34:34;;;;;;;5.78;3.13;;;6.60;67.30;;;;;;5055005;28;20085;-79
2022/10/12 05:37:00;;;;;;;5.63;3.53;;;6.60;67.30;;;;;;5054305;28;20048;-79
2022/10/12 05:39:26;;;;;;;5.22;3.35;;;6.60;67.30;;;;;;5027840;28;20051;-79
2022/10/12 05:41:53;;;;;;;5.47;3.58;;;6.60;67.40;;;;;;5054011;28;20136;-79
2022/10/12 05:44:19;;;;;;;6.37;3.30;;;6.60;67.40;;;;;;5054047;28;20020;-79
2022/10/12 05:46:45;;;;;;;4.50;2.90;;;6.60;67.40;;;;;;5069132;28;20008;-79
2022/10/12 05:49:10;;;;;;;3.92;2.83;;;6.50;67.40;;;;;;5047390;28;20988;-79
2022/10/12 05:51:37;;;;;;;4.50;2.90;;;6.50;67.40;;;;;;5066224;28;20489;-79
2022/10/12 05:54:03;;;;;;;4.80;2.92;;;6.50;67.50;;;;;;5033821;28;20029;-79
2022/10/12 05:56:29;;;;;;;5.10;2.92;;;6.50;67.50;;;;;;5064793;28;20099;-79
2022/10/12 05:58:55;;;;;;;4.70;2.80;;;6.50;67.60;;;;;;5041609;28;20029;-81
2022/10/12 06:01:20;;;;;;;5.57;3.15;;;6.50;67.70;;;;;;5060150;28;20032;-81
2022/10/12 06:03:46;;;;;;;4.93;3.03;;;6.50;67.80;;;;;;5048084;28;20524;-81
2022/10/12 06:06:11;;;;;;;5.53;2.77;;;6.40;67.80;;;;;;5029630;28;20063;-81
2022/10/12 06:08:37;;;;;;;5.55;3.13;;;6.50;67.80;;;;;;5051439;28;20027;-81
2022/10/12 06:11:03;;;;;;;5.63;2.73;;;6.40;67.80;;;;;;5028030;28;20556;-81
2022/10/12 06:13:29;;;;;;;4.03;2.60;;;6.40;67.80;;;;;;5040188;28;20027;-79
2022/10/12 06:15:54;;;;;;;5.37;2.60;;;6.40;67.80;;;;;;5032921;28;20052;-79
2022/10/12 06:18:20;;;;;;;6.00;2.92;;;6.50;68.00;;;;;;5047910;28;20046;-79
2022/10/12 06:20:48;;;;;;;6.00;3.00;;;6.50;68.00;;;;;;5030507;28;20031;-79
2022/10/12 06:23:14;;;;;;;4.17;2.67;;;6.50;68.20;;;;;;5051782;28;20288;-79
2022/10/12 06:25:40;;;;;;;6.13;2.85;;;6.50;68.10;;;;;;5047274;28;20058;-79
2022/10/12 06:28:05;;;;;;;4.47;2.53;;;6.50;68.30;;;;;;5049804;28;20249;-79
2022/10/12 06:30:31;;;;;;;4.93;3.00;;;6.50;68.30;;;;;;5052419;28;20321;-79
2022/10/12 06:32:57;;;;;;;6.38;3.08;;;6.50;68.40;;;;;;5035796;28;20043;-79
2022/10/12 06:35:22;;;;;;;5.07;2.70;;;6.50;68.50;;;;;;5064417;28;20104;-79
2022/10/12 06:37:49;;;;;;;5.35;2.63;;;6.60;68.60;;;;;;5064742;28;20381;-79
2022/10/12 06:40:16;;;;;;;4.28;2.60;;;6.60;68.70;;;;;;5041950;28;20461;-79
2022/10/12 06:42:41;;;;;;;5.00;2.90;;;6.60;68.80;;;;;;5048020;28;20040;-79
2022/10/12 06:45:07;;;;;;;5.57;3.17;;;6.70;68.90;;;;;;5052871;28;20024;-79
2022/10/12 06:47:33;;;;;;;5.57;3.10;;;6.70;69.70;;;;;;5054181;28;20119;-79
2022/10/12 06:49:58;;;;;;;4.43;2.90;;;6.80;69.00;;;;;;5051338;28;21062;-79
2022/10/12 06:52:24;;;;;;;4.73;2.93;;;6.80;69.00;;;;;;5020690;28;20118;-79
2022/10/12 06:54:49;;;;;;;4.15;2.95;;;6.90;69.10;;;;;;5045055;28;20547;-80
2022/10/12 06:57:15;;;;;;;5.40;3.07;;;6.90;69.20;;;;;;5059773;28;20105;-80
2022/10/12 06:59:41;;;;;;;5.05;2.95;;;7.00;69.40;;;;;;5039839;28;20477;-80
2022/10/12 07:02:09;;;;;;;4.00;2.43;;;7.10;69.40;;;;;;5058240;28;20870;-79
2022/10/12 07:04:35;;;;;;;4.65;2.88;;;7.10;69.50;;;;;;5080302;28;20208;-79
2022/10/12 07:07:00;;;;;;;5.63;3.00;;;7.20;69.70;;;;;;5046855;28;20027;-79
2022/10/12 07:09:26;;;;;;;5.50;3.00;;;7.20;69.80;;;;;;5064675;28;20020;-79
2022/10/12 07:11:52;;;;;;;4.03;2.87;;;7.30;70.00;;;;;;5046409;28;20103;-80
2022/10/12 07:14:17;;;;;;;5.72;3.10;;;7.40;70.10;;;;;;5048214;28;20054;-79
2022/10/12 07:16:43;;;;;;;5.53;2.63;;;7.50;70.40;;;;;;5064859;28;20024;-79
2022/10/12 07:19:09;;;;;;;5.32;2.80;;;7.70;70.60;;;;;;5046006;28;20028;-80
2022/10/12 07:21:34;;;;;;;5.27;2.97;;;7.80;70.90;;;;;;5068634;28;20020;-80
2022/10/12 07:24:00;;;;;;;5.00;2.83;;;8.00;72.00;;;;;;5053714;28;20215;-79
2022/10/12 07:26:25;;;;;;;4.03;2.30;;;8.30;73.70;;;;;;5060957;28;20515;-80
2022/10/12 07:28:51;;;;;;;5.23;2.77;;;8.80;75.30;;;;;;5046025;28;20216;-80
2022/10/12 07:31:16;;;;;;;3.92;2.50;;;9.30;76.30;;;;;;5045841;28;20016;-80
2022/10/12 07:33:42;;;;;;;4.20;2.43;;;9.80;76.00;;;;;;5068098;28;20024;-80
2022/10/12 07:36:08;;;;;;;4.37;2.47;;;10.40;75.90;;;;;;5068066;28;20036;-80
2022/10/12 07:38:34;;;;;;;5.07;2.83;;;10.90;74.70;;;;;;5034669;28;20044;-80
2022/10/12 07:41:00;;;;;;;4.57;2.75;;;11.40;74.50;;;;;;5039117;28;23500;-80
2022/10/12 07:43:27;;;;;;;4.87;2.73;;;11.80;74.20;;;;;;5072223;28;20024;-80
2022/10/12 07:45:52;;;;;;;4.43;2.88;;;12.20;73.70;;;;;;5039565;28;20380;-81
2022/10/12 07:48:19;;;;;;;6.68;3.20;;;12.60;73.10;;;;;;5055316;28;20111;-81
2022/10/12 07:50:44;;;;;;;5.87;3.27;;;12.90;72.50;;;;;;5040223;28;20041;-81
2022/10/12 07:53:10;;;;;;;5.40;3.25;;;13.20;73.50;;;;;;5072027;28;20028;-81
2022/10/12 07:55:35;;;;;;;6.20;3.13;;;13.60;74.30;;;;;;5057781;28;20028;-81
2022/10/12 07:58:01;;;;;;;7.28;3.45;;;14.00;74.00;;;;;;5060821;28;20535;-81
2022/10/12 08:00:27;;;;;;;7.33;3.33;;;14.50;73.80;;;;;;5061606;28;20032;-81
2022/10/12 08:02:53;;;;;;;6.45;3.72;;;14.90;72.90;;;;;;5047628;28;20409;-80
2022/10/12 08:05:22;;;;;;;4.77;3.30;;;15.10;71.60;;;;;;5053994;28;20039;-81
2022/10/12 08:07:50;;;;;;;5.80;3.20;;;15.30;70.20;;;;;;5045155;28;20238;-80
2022/10/12 08:10:16;;;;;;;5.30;3.10;;;15.50;68.90;;;;;;5042477;28;20492;-80
2022/10/12 08:12:44;;;;;;;6.40;2.83;;;15.50;68.00;;;;;;5049740;28;20024;-80
2022/10/12 08:15:10;;;;;;;6.57;3.25;;;15.40;67.30;;;;;;5055085;28;20024;-80
2022/10/12 08:17:36;;;;;;;4.83;2.70;;;15.30;66.70;;;;;;5041316;28;20028;-80
2022/10/12 08:20:02;;;;;;;6.15;3.08;;;15.10;66.50;;;;;;5044599;28;20278;-80
2022/10/12 08:22:27;;;;;;;4.97;2.78;;;15.00;66.30;;;;;;5067075;28;20520;-80
2022/10/12 08:24:53;;;;;;;5.03;2.60;;;14.80;66.30;;;;;;5062123;28;20240;-80
2022/10/12 08:27:18;;;;;;;5.90;2.87;;;14.70;66.30;;;;;;5055631;28;20027;-80
2022/10/12 08:29:45;;;;;;;4.82;2.80;;;14.60;66.40;;;;;;5043779;28;20020;-80
2022/10/12 08:32:11;;;;;;;5.35;2.85;;;14.40;66.40;;;;;;5053122;28;20308;-80
2022/10/12 08:34:36;;;;;;;4.97;2.87;;;14.40;66.80;;;;;;5044119;28;20128;-80
2022/10/12 08:37:02;;;;;;;5.57;2.53;;;14.30;67.10;;;;;;5052047;28;20291;-80
2022/10/12 08:39:28;;;;;;;5.27;2.50;;;14.30;67.60;;;;;;5057929;28;20043;-80
2022/10/12 08:42:11;;;;;;;5.53;2.83;;;14.30;69.00;;;;;;5059721;28;20183;-80
2022/10/12 08:44:43;;;;;;;5.00;2.90;;;14.50;70.60;;;;;;5047859;28;20245;-81
2022/10/12 08:47:26;;;;;;;4.87;2.83;;;14.80;70.70;;;;;;5062674;28;20404;-80
2022/10/12 08:49:53;;;;;;;5.68;2.55;;;15.00;70.60;;;;;;5047870;28;20291;-80
2022/10/12 08:52:24;;;;;;;4.40;2.75;;;15.30;70.40;;;;;;5054127;28;20032;-80
2022/10/12 08:54:49;;;;;;;6.43;3.00;;;15.40;69.80;;;;;;5058804;28;21548;-80
2022/10/12 08:57:17;;;;;;;4.37;2.83;;;15.70;69.40;;;;;;5050632;28;20016;-80
2022/10/12 08:59:46;;;;;;;6.75;2.88;;;15.80;69.10;;;;;;5029761;28;20035;-81
2022/10/12 09:02:32;;;;;;;5.28;3.00;;;16.00;69.40;;;;;;5057481;28;20622;-81
2022/10/12 09:05:09;;;;;;;5.80;3.17;;;16.20;69.70;;;;;;5044785;28;20220;-81
2022/10/12 09:07:40;;;;;;;5.30;2.80;;;16.60;70.40;;;;;;5069164;28;20063;-81
2022/10/12 09:10:16;;;;;;;6.43;2.85;;;16.90;70.60;;;;;;5046932;28;20080;-81
2022/10/12 09:13:04;;;;;;;5.00;2.78;;;17.20;70.50;;;;;;5059701;28;20033;-80
2022/10/12 09:15:42;;;;;;;5.00;3.05;;;17.60;70.00;;;;;;5046623;28;20017;-81
2022/10/12 09:18:19;;;;;;;5.53;2.80;;;17.90;70.40;;;;;;5076451;28;20439;-81
2022/10/12 09:20:49;;;;;;;4.37;2.80;;;18.40;71.30;;;;;;5056716;28;20036;-82
2022/10/12 09:23:15;;;;;;;4.53;2.80;;;18.80;71.80;;;;;;5071946;28;20032;-82
2022/10/12 09:25:41;;;;;;;5.35;2.92;;;19.40;72.00;;;;;;5041313;28;20282;-81
2022/10/12 09:28:32;;;;;;;5.13;2.90;;;19.90;72.00;;;;;;5059574;28;20035;-82
2022/10/12 09:31:16;;;;;;;5.77;2.93;;;20.40;69.90;;;;;;5048942;28;20059;-83
2022/10/12 09:33:59;;;;;;;6.65;3.10;;;21.00;71.30;;;;;;5058216;28;20024;-83
2022/10/12 09:36:54;;;;;;;5.38;2.67;;;21.60;68.40;;;;;;5056874;28;20230;-83
2022/10/12 09:39:27;;;;;;;4.88;2.83;;;22.00;68.90;;;;;;5049459;28;20359;-82
2022/10/12 09:41:53;;;;;;;5.35;2.80;;;22.60;68.20;;;;;;5041770;28;20104;-83
2022/10/12 09:44:35;;;;;;;8.17;3.10;;;23.00;67.70;;;;;;5037039;28;20023;-83
2022/10/12 09:47:20;;;;;;;6.45;2.40;;;23.40;66.40;;;;;;5043424;28;20037;-83
2022/10/12 09:49:51;;;;;;;4.65;2.50;;;23.80;66.50;;;;;;5053974;28;20650;-83
2022/10/12 09:52:21;;;;;;;5.15;2.80;;;24.30;64.30;;;;;;5032711;28;20665;-83
2022/10/12 09:54:53;;;;;;;5.15;2.55;;;24.60;62.90;;;;;;5087367;28;20035;-83
2022/10/12 09:57:27;;;;;;;4.00;2.23;;;24.90;61.80;;;;;;5060959;28;20106;-83
2022/10/12 09:59:53;;;;;;;5.70;2.45;;;25.20;60.40;;;;;;5041109;28;20116;-83
2022/10/12 10:02:21;;;;;;;5.93;2.60;;;25.50;62.20;;;;;;5028873;28;20532;-83
2022/10/12 10:04:49;;;;;;;4.05;2.58;;;25.70;60.30;;;;;;5070538;28;20021;-83
2022/10/12 10:07:29;;;;;;;4.65;2.72;;;25.90;59.70;;;;;;5033403;28;20617;-83
2022/10/12 10:10:16;;;;;;;4.70;2.43;;;26.10;57.90;;;;;;5057378;28;20380;-84
2022/10/12 10:13:00;;;;;;;4.10;2.53;;;26.20;55.80;;;;;;5062723;28;20062;-83
2022/10/12 10:15:32;;;;;;;6.47;2.85;;;26.30;55.60;;;;;;5041364;28;20688;-83
2022/10/12 10:18:00;;;;;;;4.60;2.70;;;26.30;55.60;;;;;;5065390;28;20012;-83
2022/10/12 10:20:26;;;;;;;3.53;2.20;;;26.10;54.30;;;;;;5063567;28;20601;-83
2022/10/12 10:22:51;;;;;;;4.23;2.60;;;25.90;54.20;;;;;;5068302;28;20031;-83
2022/10/12 10:25:23;;;;;;;5.30;2.50;;;25.80;54.60;;;;;;5052805;28;20028;-83
2022/10/12 10:28:07;;;;;;;5.35;2.70;;;25.80;54.70;;;;;;5059284;28;20028;-83
2022/10/12 10:30:33;;;;;;;5.18;2.47;;;25.90;55.70;;;;;;5044737;28;20103;-83
2022/10/12 10:33:16;;;;;;;3.67;2.27;;;26.10;56.10;;;;;;5058190;28;20544;-83
2022/10/12 10:35:53;;;;;;;4.22;2.40;;;26.20;53.30;;;;;;5046628;28;20060;-83
2022/10/12 10:38:19;;;;;;;4.78;2.42;;;26.30;52.90;;;;;;5040147;28;20190;-84
2022/10/12 10:40:50;;;;;;;5.13;2.23;;;26.40;54.90;;;;;;5052981;28;20683;-84
2022/10/12 10:43:24;;;;;;;4.47;2.38;;;26.60;53.90;;;;;;5060404;28;20028;-83
2022/10/12 10:46:02;;;;;;;4.22;2.20;;;26.70;53.70;;;;;;5056087;28;20267;-83
2022/10/12 10:48:49;;;;;;;3.28;2.00;;;27.00;52.70;;;;;;5040218;28;20829;-83
2022/10/12 10:51:15;;;;;;;4.00;2.15;;;27.10;53.30;;;;;;5065450;28;20402;-83
2022/10/12 10:53:44;;;;;;;4.70;2.10;;;27.20;52.40;;;;;;5049782;28;20126;-84
2022/10/12 10:56:13;;;;;;;4.72;2.50;;;27.20;52.10;;;;;;5062410;28;20070;-82
2022/10/12 10:58:52;;;;;;;8.25;2.65;;;27.20;51.40;;;;;;5037263;28;20791;-83
2022/10/12 11:01:20;;;;;;;4.68;2.50;;;27.20;50.30;;;;;;5046578;28;20027;-83
2022/10/12 11:04:15;;;;;;;4.53;2.38;;;27.30;51.30;;;;;;5067253;28;20099;-83
2022/10/12 11:06:46;;;;;;;4.57;2.43;;;27.50;50.20;;;;;;5065704;28;20036;-84
2022/10/12 11:09:29;;;;;;;3.50;2.25;;;27.80;52.60;;;;;;5066380;28;20323;-83
2022/10/12 11:12:09;;;;;;;3.78;2.10;;;28.10;50.60;;;;;;5051068;28;20105;-83
2022/10/12 11:14:43;;;;;;;4.95;2.20;;;28.20;49.60;;;;;;5053277;28;20106;-83
2022/10/12 11:17:18;;;;;;;4.15;1.90;;;28.10;48.10;;;;;;5049809;28;21285;-83
2022/10/12 11:19:52;;;;;;;2.87;1.77;;;27.80;47.40;;;;;;5043320;28;20034;-83
2022/10/12 11:22:31;;;;;;;4.20;2.00;;;27.60;47.00;;;;;;5052185;28;20021;-82
2022/10/12 11:25:25;;;;;;;4.93;2.03;;;27.20;46.40;;;;;;5045146;28;20465;-82
2022/10/12 11:27:51;;;;;;;3.28;1.80;;;26.80;46.00;;;;;;5052850;28;20079;-82
2022/10/12 11:30:23;;;;;;;3.83;2.10;;;26.50;47.00;;;;;;5059302;28;20103;-83
2022/10/12 11:33:37;;;;;;;3.60;1.88;;;26.20;46.70;;;;;;5033301;28;21660;-83
2022/10/12 11:36:09;;;;;;;3.63;1.80;;;25.90;47.10;;;;;;4968146;28;20502;-83
2022/10/12 11:38:55;;;;;;;3.38;2.00;;;25.80;47.70;;;;;;4986928;28;20037;-82
2022/10/12 11:41:32;;;;;;;3.67;1.93;;;25.60;47.50;;;;;;5037667;28;20090;-82
2022/10/12 11:44:12;;;;;;;4.75;1.90;;;25.40;47.90;;;;;;5052354;28;20127;-82
2022/10/12 11:47:09;;;;;;;5.65;1.98;;;25.40;48.10;;;;;;5052579;28;20095;-82
2022/10/12 11:49:41;;;;;;;4.75;2.10;;;25.40;48.10;;;;;;5023899;28;20041;-82
2022/10/12 11:52:09;;;;;;;3.97;1.90;;;25.50;49.20;;;;;;5034785;28;20037;-83
2022/10/12 11:54:44;;;;;;;2.83;1.70;;;25.70;50.40;;;;;;5056071;28;20044;-83
2022/10/12 11:57:18;;;;;;;5.43;1.90;;;26.10;51.20;;;;;;5053946;28;20045;-83
2022/10/12 11:59:50;;;;;;;3.28;1.90;;;26.50;51.30;;;;;;5056894;28;20062;-83
2022/10/12 12:02:22;;;;;;;3.45;1.70;;;27.00;51.10;;;;;;5030880;28;20601;-83
2022/10/12 12:04:49;;;;;;;4.30;1.90;;;27.40;50.80;;;;;;5035865;28;20021;-83
2022/10/12 12:07:35;;;;;;;3.17;1.70;;;27.70;49.60;;;;;;5039542;28;20279;-83
2022/10/12 12:10:24;;;;;;;3.53;1.90;;;27.90;48.20;;;;;;5055206;28;20074;-82
2022/10/12 12:13:16;;;;;;;3.47;1.80;;;28.10;47.80;;;;;;5042677;28;20127;-83
2022/10/12 12:15:48;;;;;;;4.07;1.90;;;28.30;46.90;;;;;;5050999;28;20024;-83
2022/10/12 12:18:23;;;;;;;4.45;1.90;;;28.30;47.30;;;;;;5035458;28;20336;-82
2022/10/12 12:21:04;;;;;;;4.37;2.10;;;28.20;45.80;;;;;;5057788;28;20027;-83
2022/10/12 12:23:40;;;;;;;3.90;1.80;;;28.10;46.10;;;;;;5034134;28;20107;-82
2022/10/12 12:26:09;;;;;;;4.22;2.00;;;27.80;45.30;;;;;;5042795;28;20024;-83
2022/10/12 12:28:50;;;;;;;4.40;2.00;;;27.50;45.10;;;;;;5043286;28;20388;-83
2022/10/12 12:31:23;;;;;;;3.83;2.00;;;27.20;44.90;;;;;;5050588;28;20255;-83
2022/10/12 12:34:19;;;;;;;4.47;2.13;;;26.90;44.80;;;;;;5033785;28;20039;-82
2022/10/12 12:36:48;;;;;;;3.50;1.77;;;26.70;45.20;;;;;;5049571;28;20091;-82
2022/10/12 12:39:22;;;;;;;5.03;2.10;;;26.40;45.40;;;;;;5040944;28;20256;-83
2022/10/12 12:42:03;;;;;;;3.72;1.73;;;26.20;45.40;;;;;;5043269;28;20427;-83
2022/10/12 12:44:39;;;;;;;4.80;2.05;;;25.90;45.30;;;;;;5044912;28;20070;-82
2022/10/12 12:47:08;;;;;;;4.47;2.00;;;25.70;45.20;;;;;;5052735;28;20538;-83
2022/10/12 12:49:51;;;;;;;3.50;1.70;;;25.50;45.20;;;;;;5055325;28;20039;-82
2022/10/12 12:52:27;;;;;;;3.95;1.88;;;25.30;45.40;;;;;;5042724;28;20334;-83
2022/10/12 12:55:20;;;;;;;3.50;1.70;;;25.10;45.90;;;;;;5050548;28;20534;-83
2022/10/12 12:57:54;;;;;;;3.40;1.83;;;25.00;46.00;;;;;;5065963;28;20408;-83
2022/10/12 13:00:22;;;;;;;3.50;1.57;;;25.00;46.20;;;;;;5038930;28;20024;-84
2022/10/12 13:03:17;;;;;;;3.88;1.52;;;24.90;46.70;;;;;;5057795;28;20048;-83
2022/10/12 13:06:20;;;;;;;4.05;1.60;;;25.00;46.50;;;;;;5030466;28;20220;-83
2022/10/12 13:09:05;;;;;;;2.97;1.80;;;25.00;46.60;;;;;;5055238;28;20109;-82
2022/10/12 13:11:49;;;;;;;4.43;1.77;;;25.10;47.30;;;;;;5060198;28;20032;-82